sensor_id;sensor_type;location;lat;lon;timestamp;P1;durP1;ratioP1;P2;durP2;ratioP2
1380;SDS011;684;48.342;10.096;2022-08-25T00:00:06;10.93;;;8.77;;
1380;SDS011;684;48.342;10.096;2022-08-25T00:02:33;19.50;;;9.53;;
1380;SDS011;684;48.342;10.096;2022-08-25T00:05:00;10.80;;;8.13;;
1380;SDS011;684;48.342;10.096;2022-08-25T00:07:27;14.40;;;7.90;;
1380;SDS011;684;48.342;10.096;2022-08-25T00:09:53;10.00;;;7.37;;
1380;SDS011;684;48.342;10.096;2022-08-25T00:12:22;11.17;;;7.70;;
1380;SDS011;684;48.342;10.096;2022-08-25T00:14:49;10.77;;;7.50;;
1380;SDS011;684;48.342;10.096;2022-08-25T00:17:16;16.57;;;9.37;;
1380;SDS011;684;48.342;10.096;2022-08-25T00:19:43;11.23;;;7.87;;
1380;SDS011;684;48.342;10.096;2022-08-25T00:22:10;12.53;;;7.90;;
1380;SDS011;684;48.342;10.096;2022-08-25T00:24:37;10.83;;;7.73;;
1380;SDS011;684;48.342;10.096;2022-08-25T00:27:04;10.80;;;8.43;;
1380;SDS011;684;48.342;10.096;2022-08-25T00:29:32;10.13;;;7.00;;
1380;SDS011;684;48.342;10.096;2022-08-25T00:32:02;11.43;;;7.70;;
1380;SDS011;684;48.342;10.096;2022-08-25T00:34:30;12.10;;;7.60;;
1380;SDS011;684;48.342;10.096;2022-08-25T00:36:59;11.87;;;8.27;;
1380;SDS011;684;48.342;10.096;2022-08-25T00:39:26;11.30;;;8.03;;
1380;SDS011;684;48.342;10.096;2022-08-25T00:41:54;12.80;;;8.23;;
1380;SDS011;684;48.342;10.096;2022-08-25T00:44:23;13.87;;;9.13;;
1380;SDS011;684;48.342;10.096;2022-08-25T00:46:54;12.33;;;8.83;;
1380;SDS011;684;48.342;10.096;2022-08-25T00:49:23;11.77;;;9.20;;
1380;SDS011;684;48.342;10.096;2022-08-25T00:51:53;11.70;;;8.50;;
1380;SDS011;684;48.342;10.096;2022-08-25T00:54:25;14.10;;;8.40;;
1380;SDS011;684;48.342;10.096;2022-08-25T00:56:56;11.10;;;9.13;;
1380;SDS011;684;48.342;10.096;2022-08-25T00:59:24;18.83;;;9.93;;
1380;SDS011;684;48.342;10.096;2022-08-25T01:01:54;14.17;;;10.90;;
1380;SDS011;684;48.342;10.096;2022-08-25T01:04:21;14.57;;;9.93;;
1380;SDS011;684;48.342;10.096;2022-08-25T01:06:48;16.70;;;10.03;;
1380;SDS011;684;48.342;10.096;2022-08-25T01:09:15;15.10;;;9.87;;
1380;SDS011;684;48.342;10.096;2022-08-25T01:11:44;16.77;;;10.60;;
1380;SDS011;684;48.342;10.096;2022-08-25T01:14:13;14.80;;;10.57;;
1380;SDS011;684;48.342;10.096;2022-08-25T01:16:42;15.67;;;10.63;;
1380;SDS011;684;48.342;10.096;2022-08-25T01:19:11;18.60;;;10.17;;
1380;SDS011;684;48.342;10.096;2022-08-25T01:21:41;12.97;;;9.57;;
1380;SDS011;684;48.342;10.096;2022-08-25T01:24:10;15.93;;;11.33;;
1380;SDS011;684;48.342;10.096;2022-08-25T01:26:45;17.37;;;11.70;;
1380;SDS011;684;48.342;10.096;2022-08-25T01:29:12;15.63;;;11.30;;
1380;SDS011;684;48.342;10.096;2022-08-25T01:31:50;16.17;;;11.37;;
1380;SDS011;684;48.342;10.096;2022-08-25T01:34:18;14.10;;;11.03;;
1380;SDS011;684;48.342;10.096;2022-08-25T01:36:46;13.83;;;10.90;;
1380;SDS011;684;48.342;10.096;2022-08-25T01:39:13;12.97;;;9.90;;
1380;SDS011;684;48.342;10.096;2022-08-25T01:41:44;16.10;;;11.20;;
1380;SDS011;684;48.342;10.096;2022-08-25T01:44:19;14.33;;;10.20;;
1380;SDS011;684;48.342;10.096;2022-08-25T01:46:46;15.40;;;10.80;;
1380;SDS011;684;48.342;10.096;2022-08-25T01:49:13;15.20;;;10.80;;
1380;SDS011;684;48.342;10.096;2022-08-25T01:51:41;16.37;;;11.80;;
1380;SDS011;684;48.342;10.096;2022-08-25T01:54:14;15.77;;;10.10;;
1380;SDS011;684;48.342;10.096;2022-08-25T01:56:41;18.00;;;11.67;;
1380;SDS011;684;48.342;10.096;2022-08-25T01:59:08;16.93;;;12.60;;
1380;SDS011;684;48.342;10.096;2022-08-25T02:01:36;19.40;;;13.40;;
1380;SDS011;684;48.342;10.096;2022-08-25T02:04:02;15.30;;;11.20;;
1380;SDS011;684;48.342;10.096;2022-08-25T02:06:31;19.10;;;12.77;;
1380;SDS011;684;48.342;10.096;2022-08-25T02:09:01;19.00;;;12.90;;
1380;SDS011;684;48.342;10.096;2022-08-25T02:11:34;23.53;;;14.40;;
1380;SDS011;684;48.342;10.096;2022-08-25T02:14:01;18.83;;;13.40;;
1380;SDS011;684;48.342;10.096;2022-08-25T02:16:29;16.50;;;12.97;;
1380;SDS011;684;48.342;10.096;2022-08-25T02:18:58;16.50;;;12.80;;
1380;SDS011;684;48.342;10.096;2022-08-25T02:21:25;19.60;;;12.50;;
1380;SDS011;684;48.342;10.096;2022-08-25T02:23:52;16.33;;;11.93;;
1380;SDS011;684;48.342;10.096;2022-08-25T02:26:21;17.33;;;12.10;;
1380;SDS011;684;48.342;10.096;2022-08-25T02:28:49;15.90;;;12.13;;
1380;SDS011;684;48.342;10.096;2022-08-25T02:31:18;18.37;;;11.30;;
1380;SDS011;684;48.342;10.096;2022-08-25T02:33:46;16.70;;;12.63;;
1380;SDS011;684;48.342;10.096;2022-08-25T02:36:13;16.20;;;12.30;;
1380;SDS011;684;48.342;10.096;2022-08-25T02:38:41;16.23;;;12.83;;
1380;SDS011;684;48.342;10.096;2022-08-25T02:41:08;16.97;;;11.43;;
1380;SDS011;684;48.342;10.096;2022-08-25T02:43:37;17.13;;;12.70;;
1380;SDS011;684;48.342;10.096;2022-08-25T02:46:06;17.17;;;12.07;;
1380;SDS011;684;48.342;10.096;2022-08-25T02:48:34;15.20;;;12.00;;
1380;SDS011;684;48.342;10.096;2022-08-25T02:51:02;19.93;;;14.17;;
1380;SDS011;684;48.342;10.096;2022-08-25T02:53:29;21.80;;;14.90;;
1380;SDS011;684;48.342;10.096;2022-08-25T02:55:56;21.63;;;15.73;;
1380;SDS011;684;48.342;10.096;2022-08-25T02:58:23;19.30;;;14.27;;
1380;SDS011;684;48.342;10.096;2022-08-25T03:00:51;19.40;;;15.10;;
1380;SDS011;684;48.342;10.096;2022-08-25T03:03:19;21.80;;;14.80;;
1380;SDS011;684;48.342;10.096;2022-08-25T03:05:46;19.57;;;15.93;;
1380;SDS011;684;48.342;10.096;2022-08-25T03:08:13;22.40;;;15.60;;
1380;SDS011;684;48.342;10.096;2022-08-25T03:10:40;20.30;;;15.40;;
1380;SDS011;684;48.342;10.096;2022-08-25T03:13:07;21.97;;;15.43;;
1380;SDS011;684;48.342;10.096;2022-08-25T03:15:34;21.80;;;14.60;;
1380;SDS011;684;48.342;10.096;2022-08-25T03:18:01;18.23;;;14.87;;
1380;SDS011;684;48.342;10.096;2022-08-25T03:20:31;19.30;;;15.10;;
1380;SDS011;684;48.342;10.096;2022-08-25T03:22:59;18.73;;;13.87;;
1380;SDS011;684;48.342;10.096;2022-08-25T03:25:26;20.50;;;15.87;;
1380;SDS011;684;48.342;10.096;2022-08-25T03:28:11;20.80;;;13.87;;
1380;SDS011;684;48.342;10.096;2022-08-25T03:30:38;18.50;;;14.40;;
1380;SDS011;684;48.342;10.096;2022-08-25T03:33:06;17.50;;;14.23;;
1380;SDS011;684;48.342;10.096;2022-08-25T03:35:34;21.43;;;16.20;;
1380;SDS011;684;48.342;10.096;2022-08-25T03:38:01;21.00;;;15.37;;
1380;SDS011;684;48.342;10.096;2022-08-25T03:40:29;18.03;;;13.17;;
1380;SDS011;684;48.342;10.096;2022-08-25T03:42:56;23.30;;;16.20;;
1380;SDS011;684;48.342;10.096;2022-08-25T03:45:23;26.00;;;17.20;;
1380;SDS011;684;48.342;10.096;2022-08-25T03:47:50;22.00;;;15.67;;
1380;SDS011;684;48.342;10.096;2022-08-25T03:50:18;21.70;;;16.60;;
1380;SDS011;684;48.342;10.096;2022-08-25T03:52:50;19.57;;;16.30;;
1380;SDS011;684;48.342;10.096;2022-08-25T03:55:19;23.73;;;17.17;;
1380;SDS011;684;48.342;10.096;2022-08-25T03:57:47;18.53;;;14.50;;
1380;SDS011;684;48.342;10.096;2022-08-25T04:00:14;23.70;;;16.47;;
1380;SDS011;684;48.342;10.096;2022-08-25T04:02:41;22.07;;;17.00;;
1380;SDS011;684;48.342;10.096;2022-08-25T04:05:09;20.40;;;16.60;;
1380;SDS011;684;48.342;10.096;2022-08-25T04:07:36;24.57;;;17.10;;
1380;SDS011;684;48.342;10.096;2022-08-25T04:10:05;20.43;;;16.27;;
1380;SDS011;684;48.342;10.096;2022-08-25T04:12:34;21.47;;;15.40;;
1380;SDS011;684;48.342;10.096;2022-08-25T04:15:01;22.43;;;17.27;;
1380;SDS011;684;48.342;10.096;2022-08-25T04:17:28;21.27;;;16.63;;
1380;SDS011;684;48.342;10.096;2022-08-25T04:19:55;21.83;;;17.07;;
1380;SDS011;684;48.342;10.096;2022-08-25T04:22:22;21.30;;;16.07;;
1380;SDS011;684;48.342;10.096;2022-08-25T04:24:48;22.30;;;17.40;;
1380;SDS011;684;48.342;10.096;2022-08-25T04:27:16;24.40;;;16.97;;
1380;SDS011;684;48.342;10.096;2022-08-25T04:29:43;24.10;;;17.60;;
1380;SDS011;684;48.342;10.096;2022-08-25T04:32:10;21.87;;;15.90;;
1380;SDS011;684;48.342;10.096;2022-08-25T04:34:37;22.93;;;16.37;;
1380;SDS011;684;48.342;10.096;2022-08-25T04:37:05;25.30;;;18.70;;
1380;SDS011;684;48.342;10.096;2022-08-25T04:39:32;24.13;;;18.70;;
1380;SDS011;684;48.342;10.096;2022-08-25T04:42:00;25.33;;;18.33;;
1380;SDS011;684;48.342;10.096;2022-08-25T04:44:29;26.17;;;18.80;;
1380;SDS011;684;48.342;10.096;2022-08-25T04:46:56;20.17;;;16.63;;
1380;SDS011;684;48.342;10.096;2022-08-25T04:49:23;25.20;;;18.60;;
1380;SDS011;684;48.342;10.096;2022-08-25T04:51:50;20.90;;;16.57;;
1380;SDS011;684;48.342;10.096;2022-08-25T04:54:17;22.77;;;17.80;;
1380;SDS011;684;48.342;10.096;2022-08-25T04:56:46;23.20;;;18.10;;
1380;SDS011;684;48.342;10.096;2022-08-25T04:59:14;25.20;;;19.53;;
1380;SDS011;684;48.342;10.096;2022-08-25T05:01:44;24.90;;;18.93;;
1380;SDS011;684;48.342;10.096;2022-08-25T05:04:12;25.33;;;18.70;;
1380;SDS011;684;48.342;10.096;2022-08-25T05:06:40;25.23;;;19.83;;
1380;SDS011;684;48.342;10.096;2022-08-25T05:09:08;24.03;;;18.17;;
1380;SDS011;684;48.342;10.096;2022-08-25T05:11:35;21.13;;;17.33;;
1380;SDS011;684;48.342;10.096;2022-08-25T05:14:02;23.63;;;17.67;;
1380;SDS011;684;48.342;10.096;2022-08-25T05:16:29;21.40;;;16.17;;
1380;SDS011;684;48.342;10.096;2022-08-25T05:18:57;22.33;;;16.63;;
1380;SDS011;684;48.342;10.096;2022-08-25T05:21:25;23.13;;;16.00;;
1380;SDS011;684;48.342;10.096;2022-08-25T05:23:53;18.83;;;14.70;;
1380;SDS011;684;48.342;10.096;2022-08-25T05:26:22;19.30;;;14.00;;
1380;SDS011;684;48.342;10.096;2022-08-25T05:28:50;17.00;;;13.40;;
1380;SDS011;684;48.342;10.096;2022-08-25T05:31:19;17.40;;;13.80;;
1380;SDS011;684;48.342;10.096;2022-08-25T05:33:47;19.10;;;14.80;;
1380;SDS011;684;48.342;10.096;2022-08-25T05:36:15;17.27;;;14.80;;
1380;SDS011;684;48.342;10.096;2022-08-25T05:38:43;17.97;;;14.93;;
1380;SDS011;684;48.342;10.096;2022-08-25T05:41:11;16.90;;;13.80;;
1380;SDS011;684;48.342;10.096;2022-08-25T05:43:40;16.93;;;14.10;;
1380;SDS011;684;48.342;10.096;2022-08-25T05:46:08;15.17;;;13.53;;
1380;SDS011;684;48.342;10.096;2022-08-25T05:48:35;17.50;;;15.47;;
1380;SDS011;684;48.342;10.096;2022-08-25T05:51:03;15.97;;;13.20;;
1380;SDS011;684;48.342;10.096;2022-08-25T05:53:34;15.60;;;13.90;;
1380;SDS011;684;48.342;10.096;2022-08-25T05:56:02;15.20;;;12.30;;
1380;SDS011;684;48.342;10.096;2022-08-25T05:58:30;15.97;;;13.73;;
1380;SDS011;684;48.342;10.096;2022-08-25T06:00:57;14.40;;;12.90;;
1380;SDS011;684;48.342;10.096;2022-08-25T06:03:46;13.93;;;12.50;;
1380;SDS011;684;48.342;10.096;2022-08-25T06:06:12;14.10;;;12.60;;
1380;SDS011;684;48.342;10.096;2022-08-25T06:08:41;15.40;;;12.33;;
1380;SDS011;684;48.342;10.096;2022-08-25T06:11:08;14.30;;;12.23;;
1380;SDS011;684;48.342;10.096;2022-08-25T06:13:36;13.30;;;11.90;;
1380;SDS011;684;48.342;10.096;2022-08-25T06:16:03;16.27;;;13.30;;
1380;SDS011;684;48.342;10.096;2022-08-25T06:18:31;12.13;;;10.90;;
1380;SDS011;684;48.342;10.096;2022-08-25T06:20:58;13.23;;;11.83;;
1380;SDS011;684;48.342;10.096;2022-08-25T06:23:25;12.50;;;11.20;;
1380;SDS011;684;48.342;10.096;2022-08-25T06:25:53;13.07;;;11.77;;
1380;SDS011;684;48.342;10.096;2022-08-25T06:28:20;14.80;;;13.20;;
1380;SDS011;684;48.342;10.096;2022-08-25T06:30:47;14.83;;;12.20;;
1380;SDS011;684;48.342;10.096;2022-08-25T06:33:14;12.90;;;11.27;;
1380;SDS011;684;48.342;10.096;2022-08-25T06:35:42;14.40;;;12.90;;
1380;SDS011;684;48.342;10.096;2022-08-25T06:38:09;12.87;;;11.57;;
1380;SDS011;684;48.342;10.096;2022-08-25T06:40:37;10.73;;;9.63;;
1380;SDS011;684;48.342;10.096;2022-08-25T06:43:06;10.60;;;9.50;;
1380;SDS011;684;48.342;10.096;2022-08-25T06:45:33;11.30;;;9.87;;
1380;SDS011;684;48.342;10.096;2022-08-25T06:48:00;11.63;;;10.53;;
1380;SDS011;684;48.342;10.096;2022-08-25T06:50:27;10.87;;;9.80;;
1380;SDS011;684;48.342;10.096;2022-08-25T06:52:54;12.60;;;11.40;;
1380;SDS011;684;48.342;10.096;2022-08-25T06:55:21;12.73;;;10.73;;
1380;SDS011;684;48.342;10.096;2022-08-25T06:57:51;10.30;;;9.30;;
1380;SDS011;684;48.342;10.096;2022-08-25T07:00:20;11.10;;;9.70;;
1380;SDS011;684;48.342;10.096;2022-08-25T07:02:47;12.87;;;10.60;;
1380;SDS011;684;48.342;10.096;2022-08-25T07:05:14;10.63;;;9.53;;
1380;SDS011;684;48.342;10.096;2022-08-25T07:07:41;9.87;;;8.87;;
1380;SDS011;684;48.342;10.096;2022-08-25T07:10:10;8.60;;;7.73;;
1380;SDS011;684;48.342;10.096;2022-08-25T07:12:38;10.10;;;9.10;;
1380;SDS011;684;48.342;10.096;2022-08-25T07:15:05;10.50;;;9.47;;
1380;SDS011;684;48.342;10.096;2022-08-25T07:17:34;9.73;;;8.80;;
1380;SDS011;684;48.342;10.096;2022-08-25T07:20:01;10.23;;;8.90;;
1380;SDS011;684;48.342;10.096;2022-08-25T07:22:30;10.03;;;8.93;;
1380;SDS011;684;48.342;10.096;2022-08-25T07:24:58;9.13;;;8.10;;
1380;SDS011;684;48.342;10.096;2022-08-25T07:27:25;9.60;;;8.40;;
1380;SDS011;684;48.342;10.096;2022-08-25T07:29:52;9.53;;;8.63;;
1380;SDS011;684;48.342;10.096;2022-08-25T07:32:19;8.53;;;7.73;;
1380;SDS011;684;48.342;10.096;2022-08-25T07:34:48;9.17;;;8.27;;
1380;SDS011;684;48.342;10.096;2022-08-25T07:37:32;8.53;;;7.73;;
1380;SDS011;684;48.342;10.096;2022-08-25T07:40:04;8.87;;;7.90;;
1380;SDS011;684;48.342;10.096;2022-08-25T07:42:32;9.23;;;8.33;;
1380;SDS011;684;48.342;10.096;2022-08-25T07:45:00;8.33;;;7.53;;
1380;SDS011;684;48.342;10.096;2022-08-25T07:47:28;8.50;;;7.70;;
1380;SDS011;684;48.342;10.096;2022-08-25T07:49:57;8.63;;;7.73;;
1380;SDS011;684;48.342;10.096;2022-08-25T07:52:24;9.80;;;7.03;;
1380;SDS011;684;48.342;10.096;2022-08-25T07:54:52;9.57;;;6.53;;
1380;SDS011;684;48.342;10.096;2022-08-25T07:57:20;7.67;;;6.97;;
1380;SDS011;684;48.342;10.096;2022-08-25T07:59:50;7.93;;;6.70;;
1380;SDS011;684;48.342;10.096;2022-08-25T08:02:17;8.07;;;7.20;;
1380;SDS011;684;48.342;10.096;2022-08-25T08:04:45;7.77;;;6.97;;
1380;SDS011;684;48.342;10.096;2022-08-25T08:07:16;8.17;;;7.37;;
1380;SDS011;684;48.342;10.096;2022-08-25T08:09:44;9.10;;;7.20;;
1380;SDS011;684;48.342;10.096;2022-08-25T08:12:11;7.73;;;6.93;;
1380;SDS011;684;48.342;10.096;2022-08-25T08:14:38;6.67;;;5.70;;
1380;SDS011;684;48.342;10.096;2022-08-25T08:17:06;7.53;;;6.83;;
1380;SDS011;684;48.342;10.096;2022-08-25T08:19:33;7.20;;;6.50;;
1380;SDS011;684;48.342;10.096;2022-08-25T08:22:01;7.83;;;7.03;;
1380;SDS011;684;48.342;10.096;2022-08-25T08:24:31;6.97;;;6.27;;
1380;SDS011;684;48.342;10.096;2022-08-25T08:27:03;7.27;;;6.57;;
1380;SDS011;684;48.342;10.096;2022-08-25T08:29:30;6.53;;;5.93;;
1380;SDS011;684;48.342;10.096;2022-08-25T08:31:58;8.60;;;7.70;;
1380;SDS011;684;48.342;10.096;2022-08-25T08:34:25;6.70;;;6.00;;
1380;SDS011;684;48.342;10.096;2022-08-25T08:36:52;6.40;;;5.63;;
1380;SDS011;684;48.342;10.096;2022-08-25T08:39:19;7.03;;;6.10;;
1380;SDS011;684;48.342;10.096;2022-08-25T08:41:54;9.63;;;5.93;;
1380;SDS011;684;48.342;10.096;2022-08-25T08:44:47;7.77;;;6.37;;
1380;SDS011;684;48.342;10.096;2022-08-25T08:47:33;8.73;;;6.40;;
1380;SDS011;684;48.342;10.096;2022-08-25T08:50:09;7.70;;;6.20;;
1380;SDS011;684;48.342;10.096;2022-08-25T08:52:49;7.80;;;6.30;;
1380;SDS011;684;48.342;10.096;2022-08-25T08:55:22;6.93;;;6.23;;
1380;SDS011;684;48.342;10.096;2022-08-25T08:57:54;7.47;;;5.50;;
1380;SDS011;684;48.342;10.096;2022-08-25T09:00:23;7.53;;;6.57;;
1380;SDS011;684;48.342;10.096;2022-08-25T09:02:52;6.83;;;6.20;;
1380;SDS011;684;48.342;10.096;2022-08-25T09:05:23;5.20;;;4.70;;
1380;SDS011;684;48.342;10.096;2022-08-25T09:07:54;6.53;;;4.83;;
1380;SDS011;684;48.342;10.096;2022-08-25T09:10:23;5.50;;;4.93;;
1380;SDS011;684;48.342;10.096;2022-08-25T09:13:02;6.53;;;5.60;;
1380;SDS011;684;48.342;10.096;2022-08-25T09:15:38;5.93;;;5.33;;
1380;SDS011;684;48.342;10.096;2022-08-25T09:18:29;7.00;;;5.40;;
1380;SDS011;684;48.342;10.096;2022-08-25T09:21:07;5.60;;;4.57;;
1380;SDS011;684;48.342;10.096;2022-08-25T09:23:45;7.93;;;4.30;;
1380;SDS011;684;48.342;10.096;2022-08-25T09:26:31;5.20;;;4.30;;
1380;SDS011;684;48.342;10.096;2022-08-25T09:29:04;5.00;;;4.50;;
1380;SDS011;684;48.342;10.096;2022-08-25T09:31:35;5.93;;;4.40;;
1380;SDS011;684;48.342;10.096;2022-08-25T09:34:04;6.57;;;4.83;;
1380;SDS011;684;48.342;10.096;2022-08-25T09:36:33;5.53;;;4.90;;
1380;SDS011;684;48.342;10.096;2022-08-25T09:39:00;6.07;;;4.53;;
1380;SDS011;684;48.342;10.096;2022-08-25T09:41:34;5.97;;;5.00;;
1380;SDS011;684;48.342;10.096;2022-08-25T09:44:09;7.70;;;4.87;;
1380;SDS011;684;48.342;10.096;2022-08-25T09:46:52;5.93;;;4.37;;
1380;SDS011;684;48.342;10.096;2022-08-25T09:49:29;6.40;;;4.10;;
1380;SDS011;684;48.342;10.096;2022-08-25T09:52:18;7.97;;;4.07;;
1380;SDS011;684;48.342;10.096;2022-08-25T09:57:56;6.40;;;4.90;;
1380;SDS011;684;48.342;10.096;2022-08-25T10:00:26;5.37;;;4.60;;
1380;SDS011;684;48.342;10.096;2022-08-25T10:03:04;7.30;;;5.00;;
1380;SDS011;684;48.342;10.096;2022-08-25T10:05:38;6.37;;;4.80;;
1380;SDS011;684;48.342;10.096;2022-08-25T10:08:24;6.27;;;4.37;;
1380;SDS011;684;48.342;10.096;2022-08-25T10:10:56;5.50;;;3.70;;
1380;SDS011;684;48.342;10.096;2022-08-25T10:13:31;5.00;;;4.20;;
1380;SDS011;684;48.342;10.096;2022-08-25T10:16:06;5.80;;;4.37;;
1380;SDS011;684;48.342;10.096;2022-08-25T10:18:45;6.57;;;4.70;;
1380;SDS011;684;48.342;10.096;2022-08-25T10:21:27;5.50;;;4.20;;
1380;SDS011;684;48.342;10.096;2022-08-25T10:23:54;6.07;;;4.63;;
1380;SDS011;684;48.342;10.096;2022-08-25T10:26:22;6.50;;;4.77;;
1380;SDS011;684;48.342;10.096;2022-08-25T10:31:50;4.70;;;4.20;;
1380;SDS011;684;48.342;10.096;2022-08-25T10:34:24;6.10;;;4.80;;
1380;SDS011;684;48.342;10.096;2022-08-25T10:37:09;5.50;;;4.60;;
1380;SDS011;684;48.342;10.096;2022-08-25T10:39:43;6.63;;;4.33;;
1380;SDS011;684;48.342;10.096;2022-08-25T10:42:19;6.77;;;4.77;;
1380;SDS011;684;48.342;10.096;2022-08-25T10:48:17;5.37;;;4.50;;
1380;SDS011;684;48.342;10.096;2022-08-25T10:51:07;6.37;;;4.53;;
1380;SDS011;684;48.342;10.096;2022-08-25T10:53:54;8.57;;;5.30;;
1380;SDS011;684;48.342;10.096;2022-08-25T10:56:28;5.70;;;4.70;;
1380;SDS011;684;48.342;10.096;2022-08-25T10:59:12;5.60;;;4.73;;
1380;SDS011;684;48.342;10.096;2022-08-25T11:04:50;7.30;;;4.23;;
1380;SDS011;684;48.342;10.096;2022-08-25T11:07:22;7.70;;;4.13;;
1380;SDS011;684;48.342;10.096;2022-08-25T11:09:53;8.10;;;5.97;;
1380;SDS011;684;48.342;10.096;2022-08-25T11:12:29;7.00;;;5.00;;
1380;SDS011;684;48.342;10.096;2022-08-25T11:14:59;7.50;;;4.80;;
1380;SDS011;684;48.342;10.096;2022-08-25T11:17:33;8.00;;;5.73;;
1380;SDS011;684;48.342;10.096;2022-08-25T11:20:08;6.73;;;4.63;;
1380;SDS011;684;48.342;10.096;2022-08-25T11:22:41;6.87;;;4.77;;
1380;SDS011;684;48.342;10.096;2022-08-25T11:25:13;7.40;;;5.50;;
1380;SDS011;684;48.342;10.096;2022-08-25T11:27:47;6.17;;;4.77;;
1380;SDS011;684;48.342;10.096;2022-08-25T11:30:20;7.47;;;5.40;;
1380;SDS011;684;48.342;10.096;2022-08-25T11:32:48;7.03;;;5.17;;
1380;SDS011;684;48.342;10.096;2022-08-25T11:35:19;6.47;;;4.63;;
1380;SDS011;684;48.342;10.096;2022-08-25T11:37:57;7.17;;;5.07;;
1380;SDS011;684;48.342;10.096;2022-08-25T11:40:46;9.77;;;4.67;;
1380;SDS011;684;48.342;10.096;2022-08-25T11:43:28;5.73;;;4.53;;
1380;SDS011;684;48.342;10.096;2022-08-25T11:46:07;7.37;;;4.63;;
1380;SDS011;684;48.342;10.096;2022-08-25T11:48:49;6.57;;;4.27;;
1380;SDS011;684;48.342;10.096;2022-08-25T11:51:29;7.30;;;4.37;;
1380;SDS011;684;48.342;10.096;2022-08-25T11:54:12;6.87;;;5.03;;
1380;SDS011;684;48.342;10.096;2022-08-25T11:56:49;8.30;;;5.37;;
1380;SDS011;684;48.342;10.096;2022-08-25T12:02:38;6.30;;;4.67;;
1380;SDS011;684;48.342;10.096;2022-08-25T12:05:08;7.20;;;5.20;;
1380;SDS011;684;48.342;10.096;2022-08-25T12:10:53;7.50;;;5.00;;
1380;SDS011;684;48.342;10.096;2022-08-25T12:13:23;6.10;;;4.60;;
1380;SDS011;684;48.342;10.096;2022-08-25T12:16:04;8.03;;;5.40;;
1380;SDS011;684;48.342;10.096;2022-08-25T12:18:42;13.50;;;5.23;;
1380;SDS011;684;48.342;10.096;2022-08-25T12:21:12;8.57;;;5.53;;
1380;SDS011;684;48.342;10.096;2022-08-25T12:23:43;6.50;;;4.37;;
1380;SDS011;684;48.342;10.096;2022-08-25T12:26:31;6.90;;;5.20;;
1380;SDS011;684;48.342;10.096;2022-08-25T12:29:05;7.63;;;4.53;;
1380;SDS011;684;48.342;10.096;2022-08-25T12:31:45;6.60;;;5.20;;
1380;SDS011;684;48.342;10.096;2022-08-25T12:34:33;5.93;;;4.20;;
1380;SDS011;684;48.342;10.096;2022-08-25T12:37:12;6.50;;;4.77;;
1380;SDS011;684;48.342;10.096;2022-08-25T12:39:49;6.70;;;5.00;;
1380;SDS011;684;48.342;10.096;2022-08-25T12:42:27;6.97;;;4.50;;
1380;SDS011;684;48.342;10.096;2022-08-25T12:51:09;7.17;;;4.30;;
1380;SDS011;684;48.342;10.096;2022-08-25T12:53:43;6.87;;;4.50;;
1380;SDS011;684;48.342;10.096;2022-08-25T12:56:20;5.70;;;4.03;;
1380;SDS011;684;48.342;10.096;2022-08-25T12:59:01;5.80;;;3.60;;
1380;SDS011;684;48.342;10.096;2022-08-25T13:01:40;5.37;;;3.87;;
1380;SDS011;684;48.342;10.096;2022-08-25T13:07:34;7.40;;;4.83;;
1380;SDS011;684;48.342;10.096;2022-08-25T13:10:21;6.73;;;3.90;;
1380;SDS011;684;48.342;10.096;2022-08-25T13:12:58;6.90;;;4.50;;
1380;SDS011;684;48.342;10.096;2022-08-25T13:15:34;5.37;;;3.60;;
1380;SDS011;684;48.342;10.096;2022-08-25T13:18:13;5.83;;;3.47;;
1380;SDS011;684;48.342;10.096;2022-08-25T13:20:46;5.93;;;4.10;;
1380;SDS011;684;48.342;10.096;2022-08-25T13:23:15;5.10;;;3.50;;
1380;SDS011;684;48.342;10.096;2022-08-25T13:25:48;5.97;;;4.70;;
1380;SDS011;684;48.342;10.096;2022-08-25T13:28:22;6.67;;;4.10;;
1380;SDS011;684;48.342;10.096;2022-08-25T13:30:56;7.30;;;4.07;;
1380;SDS011;684;48.342;10.096;2022-08-25T13:33:26;7.00;;;4.20;;
1380;SDS011;684;48.342;10.096;2022-08-25T13:35:54;6.10;;;3.53;;
1380;SDS011;684;48.342;10.096;2022-08-25T13:38:36;5.83;;;3.80;;
1380;SDS011;684;48.342;10.096;2022-08-25T13:41:04;5.70;;;3.97;;
1380;SDS011;684;48.342;10.096;2022-08-25T13:43:34;7.83;;;4.63;;
1380;SDS011;684;48.342;10.096;2022-08-25T13:46:02;6.17;;;4.13;;
1380;SDS011;684;48.342;10.096;2022-08-25T13:48:31;5.43;;;3.73;;
1380;SDS011;684;48.342;10.096;2022-08-25T13:51:07;9.00;;;4.17;;
1380;SDS011;684;48.342;10.096;2022-08-25T13:53:47;6.20;;;4.30;;
1380;SDS011;684;48.342;10.096;2022-08-25T13:56:22;7.63;;;4.50;;
1380;SDS011;684;48.342;10.096;2022-08-25T13:58:53;5.40;;;3.80;;
1380;SDS011;684;48.342;10.096;2022-08-25T14:01:21;6.63;;;3.90;;
1380;SDS011;684;48.342;10.096;2022-08-25T14:03:51;7.97;;;4.57;;
1380;SDS011;684;48.342;10.096;2022-08-25T14:06:21;7.47;;;4.07;;
1380;SDS011;684;48.342;10.096;2022-08-25T14:09:03;5.20;;;3.53;;
1380;SDS011;684;48.342;10.096;2022-08-25T14:11:39;6.30;;;3.73;;
1380;SDS011;684;48.342;10.096;2022-08-25T14:14:10;5.70;;;3.37;;
1380;SDS011;684;48.342;10.096;2022-08-25T14:16:44;6.27;;;3.50;;
1380;SDS011;684;48.342;10.096;2022-08-25T14:19:14;5.70;;;3.53;;
1380;SDS011;684;48.342;10.096;2022-08-25T14:21:44;6.73;;;3.73;;
1380;SDS011;684;48.342;10.096;2022-08-25T14:24:13;5.23;;;3.03;;
1380;SDS011;684;48.342;10.096;2022-08-25T14:26:41;9.00;;;3.90;;
1380;SDS011;684;48.342;10.096;2022-08-25T14:29:11;8.20;;;3.33;;
1380;SDS011;684;48.342;10.096;2022-08-25T14:31:39;5.90;;;3.60;;
1380;SDS011;684;48.342;10.096;2022-08-25T14:34:08;6.60;;;4.03;;
1380;SDS011;684;48.342;10.096;2022-08-25T14:36:39;5.40;;;3.43;;
1380;SDS011;684;48.342;10.096;2022-08-25T14:39:06;6.27;;;3.90;;
1380;SDS011;684;48.342;10.096;2022-08-25T14:41:34;6.90;;;3.80;;
1380;SDS011;684;48.342;10.096;2022-08-25T14:44:03;5.23;;;3.60;;
1380;SDS011;684;48.342;10.096;2022-08-25T14:46:32;7.60;;;4.50;;
1380;SDS011;684;48.342;10.096;2022-08-25T14:49:02;5.40;;;3.40;;
1380;SDS011;684;48.342;10.096;2022-08-25T14:51:32;5.87;;;3.47;;
1380;SDS011;684;48.342;10.096;2022-08-25T14:54:00;5.60;;;3.63;;
1380;SDS011;684;48.342;10.096;2022-08-25T14:56:29;6.10;;;3.43;;
1380;SDS011;684;48.342;10.096;2022-08-25T14:58:57;4.87;;;3.13;;
1380;SDS011;684;48.342;10.096;2022-08-25T15:01:24;5.53;;;3.20;;
1380;SDS011;684;48.342;10.096;2022-08-25T15:03:54;7.30;;;3.50;;
1380;SDS011;684;48.342;10.096;2022-08-25T15:06:25;6.30;;;4.00;;
1380;SDS011;684;48.342;10.096;2022-08-25T15:08:53;5.83;;;3.53;;
1380;SDS011;684;48.342;10.096;2022-08-25T15:11:32;5.77;;;4.03;;
1380;SDS011;684;48.342;10.096;2022-08-25T15:14:00;6.23;;;3.37;;
1380;SDS011;684;48.342;10.096;2022-08-25T15:16:28;5.80;;;3.70;;
1380;SDS011;684;48.342;10.096;2022-08-25T15:18:59;5.67;;;2.83;;
1380;SDS011;684;48.342;10.096;2022-08-25T15:21:29;5.27;;;3.23;;
1380;SDS011;684;48.342;10.096;2022-08-25T15:23:56;5.60;;;3.10;;
1380;SDS011;684;48.342;10.096;2022-08-25T15:26:24;5.50;;;3.93;;
1380;SDS011;684;48.342;10.096;2022-08-25T15:28:51;5.90;;;4.23;;
1380;SDS011;684;48.342;10.096;2022-08-25T15:31:19;5.60;;;3.37;;
1380;SDS011;684;48.342;10.096;2022-08-25T15:33:47;5.57;;;3.60;;
1380;SDS011;684;48.342;10.096;2022-08-25T15:36:16;5.90;;;4.13;;
1380;SDS011;684;48.342;10.096;2022-08-25T15:38:48;6.00;;;3.70;;
1380;SDS011;684;48.342;10.096;2022-08-25T15:41:14;6.97;;;4.17;;
1380;SDS011;684;48.342;10.096;2022-08-25T15:43:42;5.87;;;3.77;;
1380;SDS011;684;48.342;10.096;2022-08-25T15:46:09;5.70;;;3.50;;
1380;SDS011;684;48.342;10.096;2022-08-25T15:48:40;4.80;;;3.23;;
1380;SDS011;684;48.342;10.096;2022-08-25T15:51:07;7.07;;;4.30;;